createdAt,value
2018-07-05T00:00:25.085Z,101048.84
2018-07-05T00:03:11.525Z,101048.19
2018-07-05T00:05:57.830Z,101053.71
2018-07-05T00:08:44.101Z,101046.72
2018-07-05T00:11:24.453Z,101055.91
2018-07-05T00:14:10.843Z,101049.02
2018-07-05T00:16:57.300Z,101043.64
2018-07-05T00:19:43.892Z,101046.80
2018-07-05T00:22:30.046Z,101050.01
2018-07-05T00:25:16.521Z,101039.28
2018-07-05T00:28:02.964Z,101038.91
2018-07-05T00:30:49.592Z,101047.41
2018-07-05T00:33:36.411Z,101045.05
2018-07-05T00:36:22.927Z,101045.30
2018-07-05T00:39:12.100Z,101052.66
2018-07-05T00:41:58.433Z,101048.38
2018-07-05T00:44:44.762Z,101054.81
2018-07-05T00:47:30.959Z,101052.81
2018-07-05T00:50:17.772Z,101049.59
2018-07-05T00:53:04.102Z,101057.16
2018-07-05T00:55:50.283Z,101052.70
2018-07-05T00:58:36.632Z,101055.09
2018-07-05T01:01:22.772Z,101053.56
2018-07-05T01:04:08.931Z,101059.00
2018-07-05T01:06:55.298Z,101054.37
2018-07-05T01:09:41.538Z,101054.66
2018-07-05T01:12:27.706Z,101050.81
2018-07-05T01:15:14.050Z,101052.08
2018-07-05T01:18:00.259Z,101056.97
2018-07-05T01:20:46.431Z,101061.55
2018-07-05T01:23:32.816Z,101060.41
2018-07-05T01:26:19.080Z,101057.09
2018-07-05T01:29:05.388Z,101071.20
2018-07-05T01:31:51.450Z,101067.25
2018-07-05T01:34:37.639Z,101076.17
2018-07-05T01:37:23.867Z,101073.61
2018-07-05T01:40:10.536Z,101073.47
2018-07-05T01:42:56.606Z,101070.20
2018-07-05T01:45:42.942Z,101075.70
2018-07-05T01:48:29.224Z,101075.33
2018-07-05T01:51:15.514Z,101071.14
2018-07-05T01:54:01.711Z,101074.53
2018-07-05T01:56:48.546Z,101073.78
2018-07-05T01:59:34.838Z,101079.59
2018-07-05T02:02:21.312Z,101066.69
2018-07-05T02:05:07.723Z,101070.96
2018-07-05T02:07:54.033Z,101072.53
2018-07-05T02:10:40.203Z,101074.00
2018-07-05T02:13:26.759Z,101072.05
2018-07-05T02:16:13.122Z,101069.55
2018-07-05T02:18:59.417Z,101074.84
2018-07-05T02:21:45.558Z,101075.08
2018-07-05T02:24:31.652Z,101056.44
2018-07-05T02:27:18.004Z,101068.31
2018-07-05T02:30:04.576Z,101060.48
2018-07-05T02:32:50.709Z,101067.48
2018-07-05T02:35:37.014Z,101075.09
2018-07-05T02:38:23.747Z,101069.58
2018-07-05T02:41:10.170Z,101072.64
2018-07-05T02:43:56.334Z,101071.23
2018-07-05T02:46:42.892Z,101068.86
2018-07-05T02:49:29.018Z,101072.47
2018-07-05T02:52:15.485Z,101072.25
2018-07-05T02:55:01.710Z,101074.27
2018-07-05T02:57:47.905Z,101078.16
2018-07-05T03:00:34.232Z,101079.53
2018-07-05T03:03:20.484Z,101077.63
2018-07-05T03:06:06.979Z,101086.72
2018-07-05T03:08:53.326Z,101090.94
2018-07-05T03:11:39.520Z,101086.37
2018-07-05T03:14:25.769Z,101083.41
2018-07-05T03:17:12.116Z,101087.45
2018-07-05T03:19:58.975Z,101094.41
2018-07-05T03:22:45.334Z,101085.95
2018-07-05T03:25:31.554Z,101086.67
2018-07-05T03:28:17.634Z,101079.52
2018-07-05T03:31:04.046Z,101078.86
2018-07-05T03:33:50.153Z,101076.22
2018-07-05T03:36:36.490Z,101070.61
2018-07-05T03:39:16.815Z,101072.81
2018-07-05T03:42:02.960Z,101071.77
2018-07-05T03:44:49.181Z,101068.32
2018-07-05T03:47:35.515Z,101061.22
2018-07-05T03:50:21.824Z,101069.89
2018-07-05T03:53:08.245Z,101064.72
2018-07-05T03:55:54.451Z,101062.17
2018-07-05T03:58:40.585Z,101065.14
2018-07-05T04:01:26.932Z,101072.02
2018-07-05T04:04:13.167Z,101063.66
2018-07-05T04:06:59.743Z,101058.82
2018-07-05T04:09:46.097Z,101069.88
2018-07-05T04:12:32.438Z,101070.38
2018-07-05T04:15:18.705Z,101068.57
2018-07-05T04:18:04.834Z,101060.95
2018-07-05T04:20:51.064Z,101063.70
2018-07-05T04:23:37.212Z,101073.71
2018-07-05T04:26:23.704Z,101056.56
2018-07-05T04:29:09.930Z,101058.16
2018-07-05T04:31:56.288Z,101053.79
2018-07-05T04:34:42.518Z,101049.43
2018-07-05T04:37:28.713Z,101051.72
2018-07-05T04:40:15.008Z,101045.95
2018-07-05T04:43:01.638Z,101048.29
2018-07-05T04:45:47.848Z,101053.87
2018-07-05T04:48:34.093Z,101053.97
2018-07-05T04:51:20.391Z,101048.48
2018-07-05T04:54:06.839Z,101051.00
2018-07-05T04:56:53.435Z,101054.78
2018-07-05T04:59:40.247Z,101059.03
2018-07-05T05:02:26.541Z,101053.28
2018-07-05T05:05:12.671Z,101056.69
2018-07-05T05:07:58.934Z,101052.11
2018-07-05T05:10:45.111Z,101045.86
2018-07-05T05:13:31.449Z,101048.55
2018-07-05T05:16:18.076Z,101044.13
2018-07-05T05:19:04.193Z,101045.56
2018-07-05T05:21:50.502Z,101040.92
2018-07-05T05:24:36.755Z,101041.75
2018-07-05T05:27:23.034Z,101035.35
2018-07-05T05:30:09.241Z,101047.57
2018-07-05T05:32:55.825Z,101047.88
2018-07-05T05:35:42.081Z,101037.30
2018-07-05T05:38:28.301Z,101040.43
2018-07-05T05:41:14.919Z,101044.66
2018-07-05T05:44:01.215Z,101043.61
2018-07-05T05:46:47.424Z,101046.53
2018-07-05T05:49:34.263Z,101053.62
2018-07-05T05:52:20.467Z,101064.27
2018-07-05T05:55:00.792Z,101063.09
2018-07-05T05:57:47.355Z,101054.13
2018-07-05T06:00:33.449Z,101055.56
2018-07-05T06:03:19.470Z,101060.80
2018-07-05T06:06:06.011Z,101056.31
2018-07-05T06:08:52.275Z,101062.62
2018-07-05T06:11:38.523Z,101051.11
2018-07-05T06:14:24.715Z,101052.39
2018-07-05T06:17:10.867Z,101062.62
2018-07-05T06:19:57.038Z,101056.42
2018-07-05T06:22:43.183Z,101048.78
2018-07-05T06:25:29.359Z,101057.83
2018-07-05T06:28:15.662Z,101061.58
2018-07-05T06:31:01.861Z,101063.92
2018-07-05T06:33:47.981Z,101059.59
2018-07-05T06:36:34.362Z,101064.05
2018-07-05T06:39:20.758Z,101071.62
2018-07-05T06:42:07.033Z,101061.50
2018-07-05T06:44:53.359Z,101054.91
2018-07-05T06:47:39.633Z,101057.97
2018-07-05T06:50:25.920Z,101061.53
2018-07-05T06:53:12.041Z,101067.71
2018-07-05T06:55:58.304Z,101056.41
2018-07-05T06:58:44.555Z,101056.36
2018-07-05T07:01:30.747Z,101051.13
2018-07-05T07:04:16.940Z,101053.94
2018-07-05T07:07:03.448Z,101052.25
2018-07-05T07:09:49.745Z,101045.67
2018-07-05T07:12:36.384Z,101049.77
2018-07-05T07:15:22.606Z,101050.64
2018-07-05T07:18:09.048Z,101054.92
2018-07-05T07:20:55.443Z,101053.82
2018-07-05T07:23:41.780Z,101049.42
2018-07-05T07:26:28.043Z,101048.84
2018-07-05T07:29:14.700Z,101047.16
2018-07-05T07:32:01.086Z,101047.94
2018-07-05T07:34:47.419Z,101040.40
2018-07-05T07:37:33.735Z,101038.17
2018-07-05T07:40:19.779Z,101045.63
2018-07-05T07:42:47.567Z,101035.80
2018-07-05T07:45:15.353Z,101036.00
2018-07-05T07:47:43.396Z,101033.00
2018-07-05T07:50:11.606Z,101043.37
2018-07-05T07:52:39.347Z,101039.13
2018-07-05T07:55:07.226Z,101039.84
2018-07-05T07:57:35.000Z,101047.66
2018-07-05T08:00:02.787Z,101042.16
2018-07-05T08:02:30.585Z,101041.38
2018-07-05T08:04:58.387Z,101037.17
2018-07-05T08:07:26.338Z,101043.42
2018-07-05T08:09:54.533Z,101045.06
2018-07-05T08:12:22.342Z,101038.49
2018-07-05T08:14:50.134Z,101035.39
2018-07-05T08:17:17.954Z,101036.63
2018-07-05T08:19:45.801Z,101038.44
2018-07-05T08:22:13.597Z,101036.82
2018-07-05T08:24:41.383Z,101036.23
2018-07-05T08:27:09.118Z,101041.79
2018-07-05T08:29:36.956Z,101035.55
2018-07-05T08:32:05.065Z,101040.23
2018-07-05T08:34:32.879Z,101044.89
2018-07-05T08:37:00.674Z,101042.20
2018-07-05T08:39:28.499Z,101039.02
2018-07-05T08:41:56.388Z,101047.67
2018-07-05T08:44:24.426Z,101038.88
2018-07-05T08:46:53.042Z,101036.14
2018-07-05T08:49:20.884Z,101031.67
2018-07-05T08:51:48.888Z,101033.68
2018-07-05T08:54:17.555Z,101025.14
2018-07-05T08:56:45.378Z,101036.73
2018-07-05T08:59:13.196Z,101028.35
2018-07-05T09:01:41.077Z,101038.22
2018-07-05T09:04:08.904Z,101033.22
2018-07-05T09:06:36.664Z,101036.83
2018-07-05T09:09:05.624Z,101029.34
2018-07-05T09:11:33.494Z,101039.15
2018-07-05T09:14:01.298Z,101039.38
2018-07-05T09:16:35.418Z,101030.98
2018-07-05T09:19:03.201Z,101032.30
2018-07-05T09:21:30.983Z,101029.58
2018-07-05T09:23:58.927Z,101032.64
2018-07-05T09:26:26.788Z,101024.93
2018-07-05T09:28:54.785Z,101020.47
2018-07-05T09:31:22.623Z,101023.12
2018-07-05T09:33:50.448Z,101018.05
2018-07-05T09:36:18.234Z,101021.19
2018-07-05T09:38:46.201Z,101013.77
2018-07-05T09:41:13.971Z,101009.66
2018-07-05T09:43:41.883Z,101015.23
2018-07-05T09:46:10.114Z,101011.61
2018-07-05T09:48:37.889Z,101017.20
2018-07-05T09:51:05.697Z,101018.59
2018-07-05T09:53:33.543Z,101015.81
2018-07-05T09:56:01.842Z,101021.14
2018-07-05T09:58:29.633Z,101021.11
2018-07-05T10:00:57.683Z,101022.52
2018-07-05T10:03:25.823Z,101016.37
2018-07-05T10:05:53.810Z,101016.09
2018-07-05T10:08:21.611Z,101007.09
2018-07-05T10:10:49.531Z,101012.95
2018-07-05T10:13:17.412Z,101007.64
2018-07-05T10:15:45.201Z,101000.11
2018-07-05T10:18:12.996Z,101001.51
2018-07-05T10:20:40.897Z,100998.14
2018-07-05T10:23:09.111Z,101001.22
2018-07-05T10:25:37.047Z,101004.05
2018-07-05T10:28:04.843Z,100988.41
2018-07-05T10:30:51.183Z,100997.30
2018-07-05T10:33:37.454Z,100987.15
2018-07-05T10:36:05.231Z,101000.27
2018-07-05T10:38:32.994Z,101000.61
2018-07-05T10:41:19.778Z,100996.59
2018-07-05T10:44:06.117Z,100992.31
2018-07-05T10:46:52.490Z,100983.59
2018-07-05T10:49:38.653Z,100983.77
2018-07-05T10:52:24.900Z,100986.82
2018-07-05T10:55:11.030Z,100985.00
2018-07-05T10:57:57.280Z,100987.71
2018-07-05T11:00:43.508Z,100978.89
2018-07-05T11:03:29.724Z,100986.78
2018-07-05T11:06:15.974Z,100979.03
2018-07-05T11:08:56.271Z,100981.26
2018-07-05T11:11:42.638Z,100982.13
2018-07-05T11:14:30.273Z,100966.58
2018-07-05T11:17:16.682Z,100963.67
2018-07-05T11:20:02.923Z,100965.83
2018-07-05T11:22:49.466Z,100968.19
2018-07-05T11:25:35.767Z,100969.45
2018-07-05T11:28:16.217Z,100976.42
2018-07-05T11:31:02.654Z,100970.48
2018-07-05T11:33:50.127Z,100963.41
2018-07-05T11:36:36.432Z,100969.67
2018-07-05T11:39:22.607Z,100968.55
2018-07-05T11:42:08.759Z,100967.73
2018-07-05T11:44:54.895Z,100974.98
2018-07-05T11:47:41.717Z,100965.20
2018-07-05T11:50:28.055Z,100970.88
2018-07-05T11:53:14.389Z,100976.33
2018-07-05T11:56:00.732Z,100971.42
2018-07-05T11:58:47.065Z,100974.98
2018-07-05T12:01:33.173Z,100980.98
2018-07-05T12:04:19.575Z,100980.25
2018-07-05T12:07:05.983Z,100970.03
2018-07-05T12:09:52.416Z,100980.30
2018-07-05T12:12:38.616Z,100985.52
2018-07-05T12:15:24.945Z,100982.71
2018-07-05T12:18:11.315Z,100983.57
2018-07-05T12:20:58.023Z,100984.45
2018-07-05T12:23:44.423Z,100982.23
2018-07-05T12:26:30.752Z,100981.98
2018-07-05T12:29:16.969Z,100990.54
2018-07-05T12:32:03.292Z,100978.95
2018-07-05T12:34:49.490Z,100984.84
2018-07-05T12:37:36.380Z,100986.06
2018-07-05T12:40:22.862Z,100978.41
2018-07-05T12:43:09.001Z,100981.11
2018-07-05T12:45:55.227Z,100979.67
2018-07-05T12:48:41.622Z,100974.96
2018-07-05T12:51:28.136Z,100967.11
2018-07-05T12:54:14.752Z,100978.90
2018-07-05T12:57:01.008Z,100978.63
2018-07-05T12:59:47.419Z,100991.41
2018-07-05T13:02:33.732Z,100987.44
2018-07-05T13:05:20.029Z,100994.52
2018-07-05T13:08:06.486Z,100985.29
2018-07-05T13:10:53.255Z,100991.80
2018-07-05T13:13:39.636Z,100996.45
2018-07-05T13:16:25.885Z,101000.36
2018-07-05T13:19:12.295Z,101005.70
2018-07-05T13:21:58.555Z,101008.16
2018-07-05T13:24:44.899Z,101005.48
2018-07-05T13:27:31.810Z,100995.34
2018-07-05T13:30:17.939Z,101000.38
2018-07-05T13:33:04.315Z,100993.22
2018-07-05T13:35:50.521Z,100993.16
2018-07-05T13:38:36.844Z,100998.73
2018-07-05T13:41:23.082Z,100996.17
2018-07-05T13:44:10.034Z,101009.41
2018-07-05T13:46:56.161Z,101014.98
2018-07-05T13:49:42.262Z,101017.63
2018-07-05T13:52:28.589Z,101009.66
2018-07-05T13:55:14.852Z,101014.98
2018-07-05T13:58:01.370Z,101017.48
2018-07-05T14:00:47.730Z,101014.98
2018-07-05T14:03:33.908Z,101020.56
2018-07-05T14:06:20.192Z,101013.87
2018-07-05T14:09:06.448Z,101019.45
2018-07-05T14:11:52.767Z,101016.13
2018-07-05T14:14:39.149Z,101013.29
2018-07-05T14:17:25.832Z,101016.63
2018-07-05T14:20:12.207Z,101019.97
2018-07-05T14:22:58.395Z,101029.47
2018-07-05T14:25:44.548Z,101016.91
2018-07-05T14:28:30.752Z,101026.70
2018-07-05T14:31:17.057Z,101028.08
2018-07-05T14:34:03.443Z,101032.07
2018-07-05T14:36:49.707Z,101028.47
2018-07-05T14:39:36.011Z,101027.93
2018-07-05T14:42:22.507Z,101029.70
2018-07-05T14:45:08.853Z,101029.78
2018-07-05T14:47:55.213Z,101024.31
2018-07-05T14:50:41.911Z,101028.80
2018-07-05T14:53:28.254Z,101024.84
2018-07-05T14:56:14.579Z,101027.45
2018-07-05T14:59:01.123Z,101027.87
2018-07-05T15:01:47.417Z,101026.20
2018-07-05T15:04:33.736Z,101027.56
2018-07-05T15:07:20.429Z,101033.52
2018-07-05T15:10:06.592Z,101029.86
2018-07-05T15:12:52.778Z,101040.07
2018-07-05T15:15:38.975Z,101035.94
2018-07-05T15:18:25.475Z,101045.94
2018-07-05T15:21:11.652Z,101045.19
2018-07-05T15:23:58.201Z,101044.62
2018-07-05T15:26:44.544Z,101051.70
2018-07-05T15:29:30.683Z,101041.05
2018-07-05T15:32:16.955Z,101045.89
2018-07-05T15:35:03.170Z,101048.73
2018-07-05T15:37:49.339Z,101054.76
2018-07-05T15:40:35.770Z,101048.28
2018-07-05T15:43:21.999Z,101045.71
2018-07-05T15:46:08.098Z,101046.47
2018-07-05T15:48:54.699Z,101043.22
2018-07-05T15:51:41.030Z,101039.19
2018-07-05T15:54:27.294Z,101032.77
2018-07-05T15:57:13.853Z,101043.93
2018-07-05T16:00:00.671Z,101048.36
2018-07-05T16:02:47.520Z,101052.64
2018-07-05T16:05:33.721Z,101048.28
2018-07-05T16:08:20.117Z,101033.75
2018-07-05T16:11:06.456Z,101034.10
2018-07-05T16:13:53.074Z,101032.72
2018-07-05T16:16:39.331Z,101031.09
2018-07-05T16:19:25.849Z,101047.09
2018-07-05T16:22:12.234Z,101040.21
2018-07-05T16:24:58.573Z,101038.37
2018-07-05T16:27:44.779Z,101041.24
2018-07-05T16:30:31.070Z,101043.08
2018-07-05T16:33:17.469Z,101042.98
2018-07-05T16:36:03.696Z,101042.53
2018-07-05T16:38:50.035Z,101030.37
2018-07-05T16:41:36.521Z,101032.59
2018-07-05T16:44:22.709Z,101045.31
2018-07-05T16:47:09.112Z,101036.06
2018-07-05T16:49:55.540Z,101051.31
2018-07-05T16:52:41.739Z,101039.79
2018-07-05T16:55:28.059Z,101031.05
2018-07-05T16:58:14.307Z,101025.20
2018-07-05T17:01:00.424Z,101026.41
2018-07-05T17:03:47.466Z,101035.08
2018-07-05T17:06:33.892Z,101040.95
2018-07-05T17:09:20.155Z,101040.92
2018-07-05T17:12:06.275Z,101039.72
2018-07-05T17:14:52.721Z,101045.86
2018-07-05T17:17:39.016Z,101054.25
2018-07-05T17:20:25.779Z,101050.97
2018-07-05T17:23:12.104Z,101053.58
2018-07-05T17:25:58.229Z,101048.71
2018-07-05T17:28:44.390Z,101054.13
2018-07-05T17:31:30.613Z,101059.38
2018-07-05T17:34:10.759Z,101064.91
2018-07-05T17:36:57.171Z,101065.75
2018-07-05T17:39:43.667Z,101062.69
2018-07-05T17:42:30.000Z,101071.53
2018-07-05T17:45:16.231Z,101064.33
2018-07-05T17:48:02.457Z,101065.70
2018-07-05T17:50:48.912Z,101074.22
2018-07-05T17:53:35.768Z,101070.80
2018-07-05T17:56:22.039Z,101072.09
2018-07-05T17:59:09.135Z,101073.38
2018-07-05T18:01:55.455Z,101070.50
2018-07-05T18:04:42.205Z,101063.59
2018-07-05T18:07:28.418Z,101064.57
2018-07-05T18:10:15.073Z,101063.39
2018-07-05T18:13:01.357Z,101070.21
2018-07-05T18:15:47.554Z,101068.33
2018-07-05T18:18:33.733Z,101074.21
2018-07-05T18:21:19.814Z,101085.80
2018-07-05T18:24:05.994Z,101088.17
2018-07-05T18:26:52.824Z,101086.08
2018-07-05T18:29:39.066Z,101089.38
2018-07-05T18:32:25.932Z,101085.94
2018-07-05T18:35:12.328Z,101094.49
2018-07-05T18:37:58.633Z,101095.83
2018-07-05T18:40:44.795Z,101090.83
2018-07-05T18:43:31.541Z,101098.95
2018-07-05T18:46:17.763Z,101106.05
2018-07-05T18:49:04.212Z,101106.07
2018-07-05T18:51:50.589Z,101109.91
2018-07-05T18:54:36.912Z,101108.19
2018-07-05T18:57:23.155Z,101115.67
2018-07-05T19:00:09.854Z,101119.38
2018-07-05T19:02:56.150Z,101121.43
2018-07-05T19:05:42.296Z,101126.31
2018-07-05T19:08:29.445Z,101128.63
2018-07-05T19:11:15.749Z,101131.39
2018-07-05T19:14:02.233Z,101134.97
2018-07-05T19:16:48.937Z,101130.53
2018-07-05T19:19:35.350Z,101133.75
2018-07-05T19:22:21.542Z,101140.94
2018-07-05T19:25:07.916Z,101138.78
2018-07-05T19:27:54.245Z,101139.11
2018-07-05T19:30:40.656Z,101147.84
2018-07-05T19:33:27.300Z,101150.30
2018-07-05T19:36:13.735Z,101160.58
2018-07-05T19:39:00.131Z,101155.36
2018-07-05T19:41:46.535Z,101158.73
2018-07-05T19:44:32.955Z,101162.41
2018-07-05T19:47:19.390Z,101163.81
2018-07-05T19:50:05.874Z,101159.73
2018-07-05T19:52:52.088Z,101165.63
2018-07-05T19:55:32.415Z,101163.95
2018-07-05T19:58:18.674Z,101170.75
2018-07-05T20:01:05.072Z,101174.34
2018-07-05T20:03:51.311Z,101175.12
2018-07-05T20:06:37.964Z,101176.28
2018-07-05T20:09:24.123Z,101175.72
2018-07-05T20:12:11.201Z,101174.81
2018-07-05T20:14:57.591Z,101177.48
2018-07-05T20:17:43.695Z,101180.33
2018-07-05T20:20:24.069Z,101179.84
2018-07-05T20:23:10.646Z,101180.17
2018-07-05T20:25:57.237Z,101181.14
2018-07-05T20:28:43.482Z,101179.31
2018-07-05T20:31:29.830Z,101180.44
2018-07-05T20:34:16.220Z,101185.87
2018-07-05T20:37:02.478Z,101185.87
2018-07-05T20:39:48.984Z,101184.80
2018-07-05T20:42:35.332Z,101187.25
2018-07-05T20:45:21.606Z,101194.92
2018-07-05T20:48:07.795Z,101192.62
2018-07-05T20:50:53.952Z,101187.94
2018-07-05T20:53:40.460Z,101198.66
2018-07-05T20:56:26.857Z,101197.72
2018-07-05T20:59:13.228Z,101201.72
2018-07-05T21:01:59.632Z,101200.17
2018-07-05T21:04:45.969Z,101196.70
2018-07-05T21:07:32.326Z,101196.97
2018-07-05T21:10:18.860Z,101202.78
2018-07-05T21:13:05.439Z,101203.41
2018-07-05T21:15:51.875Z,101205.31
2018-07-05T21:18:38.031Z,101205.66
2018-07-05T21:21:24.349Z,101204.83
2018-07-05T21:24:10.624Z,101204.39
2018-07-05T21:26:56.800Z,101198.17
2018-07-05T21:29:43.502Z,101212.73
2018-07-05T21:32:29.877Z,101214.61
2018-07-05T21:35:16.067Z,101214.11
2018-07-05T21:38:02.240Z,101214.99
2018-07-05T21:40:48.432Z,101214.43
2018-07-05T21:43:34.547Z,101218.73
2018-07-05T21:46:21.316Z,101218.11
2018-07-05T21:49:07.564Z,101215.14
2018-07-05T21:51:53.673Z,101209.53
2018-07-05T21:54:40.097Z,101216.94
2018-07-05T21:57:26.362Z,101220.37
2018-07-05T22:00:12.827Z,101217.88
2018-07-05T22:02:59.360Z,101223.82
2018-07-05T22:05:45.842Z,101225.64
2018-07-05T22:08:32.168Z,101227.95
2018-07-05T22:11:18.362Z,101218.27
2018-07-05T22:14:04.525Z,101223.78
2018-07-05T22:16:56.059Z,101226.16
2018-07-05T22:19:48.130Z,101224.95
2018-07-05T22:22:39.746Z,101220.89
2018-07-05T22:25:31.056Z,101222.34
2018-07-05T22:28:22.484Z,101222.89
2018-07-05T22:31:13.960Z,101231.23
2018-07-05T22:34:00.174Z,101239.11
2018-07-05T22:36:46.700Z,101235.00
2018-07-05T22:39:33.335Z,101237.67
2018-07-05T22:42:19.737Z,101237.77
2018-07-05T22:45:06.003Z,101240.37
2018-07-05T22:47:52.217Z,101237.48
2018-07-05T22:50:38.608Z,101239.09
2018-07-05T22:53:25.043Z,101237.48
2018-07-05T22:56:11.327Z,101240.16
2018-07-05T22:58:57.655Z,101239.84
2018-07-05T23:01:43.754Z,101244.48
2018-07-05T23:04:30.112Z,101240.72
2018-07-05T23:07:16.404Z,101244.59
2018-07-05T23:10:02.951Z,101242.70
2018-07-05T23:12:43.094Z,101243.29
2018-07-05T23:15:29.491Z,101244.80
2018-07-05T23:18:15.735Z,101244.69
2018-07-05T23:21:02.043Z,101237.79
2018-07-05T23:23:48.196Z,101237.13
2018-07-05T23:26:34.927Z,101234.06
2018-07-05T23:29:21.271Z,101239.06
2018-07-05T23:32:07.595Z,101244.12
2018-07-05T23:34:54.010Z,101241.38
2018-07-05T23:37:40.271Z,101239.69
2018-07-05T23:40:26.539Z,101238.31
2018-07-05T23:43:12.965Z,101241.51
2018-07-05T23:45:59.176Z,101242.47
2018-07-05T23:48:45.350Z,101242.97
2018-07-05T23:51:31.583Z,101241.81
2018-07-05T23:54:17.785Z,101243.29
2018-07-05T23:57:03.956Z,101243.94
2018-07-05T23:59:50.722Z,101239.70
